createdAt,value
2023-04-03T00:00:03.769Z,9.38
2023-04-03T00:01:03.755Z,9.37
2023-04-03T00:02:03.747Z,9.30
2023-04-03T00:03:03.785Z,9.27
2023-04-03T00:04:03.763Z,9.27
2023-04-03T00:05:03.707Z,9.13
2023-04-03T00:06:03.681Z,9.10
2023-04-03T00:07:03.673Z,9.03
2023-04-03T00:08:03.653Z,8.91
2023-04-03T00:09:03.639Z,8.88
2023-04-03T00:10:03.619Z,8.73
2023-04-03T00:11:03.607Z,8.78
2023-04-03T00:12:03.614Z,8.78
2023-04-03T00:13:03.578Z,8.76
2023-04-03T00:14:03.559Z,8.67
2023-04-03T00:15:03.546Z,8.70
2023-04-03T00:16:03.529Z,8.76
2023-04-03T00:17:03.550Z,8.82
2023-04-03T00:18:03.560Z,8.88
2023-04-03T00:19:03.489Z,8.76
2023-04-03T00:20:03.468Z,8.85
2023-04-03T00:21:03.461Z,8.89
2023-04-03T00:22:03.442Z,8.91
2023-04-03T00:23:03.432Z,8.94
2023-04-03T00:24:03.410Z,8.96
2023-04-03T00:25:03.399Z,8.93
2023-04-03T00:26:03.431Z,8.94
2023-04-03T00:27:03.368Z,8.79
2023-04-03T00:28:03.373Z,8.85
2023-04-03T00:29:03.356Z,8.79
2023-04-03T00:30:03.324Z,8.71
2023-04-03T00:31:03.330Z,8.70
2023-04-03T00:32:03.291Z,8.67
2023-04-03T00:33:03.322Z,8.71
2023-04-03T00:34:03.262Z,8.71
2023-04-03T00:35:03.253Z,8.75
2023-04-03T00:36:03.272Z,8.80
2023-04-03T00:37:03.292Z,8.75
2023-04-03T00:38:03.203Z,8.71
2023-04-03T00:39:03.189Z,8.64
2023-04-03T00:40:03.170Z,8.67
2023-04-03T00:41:03.158Z,8.52
2023-04-03T00:42:03.178Z,8.54
2023-04-03T00:43:03.139Z,8.49
2023-04-03T00:44:03.129Z,8.46
2023-04-03T00:45:03.096Z,8.49
2023-04-03T00:46:03.183Z,8.40
2023-04-03T00:47:03.075Z,8.34
2023-04-03T00:48:03.078Z,8.42
2023-04-03T00:49:03.036Z,8.37
2023-04-03T00:50:03.031Z,8.27
2023-04-03T00:51:03.010Z,8.27
2023-04-03T00:52:02.990Z,8.25
2023-04-03T00:53:02.975Z,8.28
2023-04-03T00:54:02.960Z,8.24
2023-04-03T00:55:02.954Z,8.22
2023-04-03T00:56:02.937Z,8.21
2023-04-03T00:57:02.927Z,8.22
2023-04-03T00:58:02.902Z,8.22
2023-04-03T00:59:02.883Z,8.14
2023-04-03T01:00:02.886Z,8.18
2023-04-03T01:01:02.857Z,8.20
2023-04-03T01:02:02.946Z,8.21
2023-04-03T01:03:02.914Z,8.12
2023-04-03T01:04:02.820Z,8.17
2023-04-03T01:05:02.793Z,8.14
2023-04-03T01:06:02.780Z,8.10
2023-04-03T01:07:02.765Z,8.09
2023-04-03T01:08:02.748Z,8.14
2023-04-03T01:09:02.758Z,8.13
2023-04-03T01:10:02.718Z,8.14
2023-04-03T01:11:02.702Z,8.17
2023-04-03T01:12:02.683Z,8.09
2023-04-03T01:13:02.677Z,8.17
2023-04-03T01:14:02.669Z,8.14
2023-04-03T01:15:02.640Z,8.17
2023-04-03T01:16:02.673Z,8.14
2023-04-03T01:17:02.605Z,8.20
2023-04-03T01:18:02.678Z,8.12
2023-04-03T01:19:02.578Z,8.14
2023-04-03T01:20:02.598Z,8.09
2023-04-03T01:21:02.542Z,8.07
2023-04-03T01:22:02.532Z,8.00
2023-04-03T01:23:02.524Z,8.04
2023-04-03T01:24:02.500Z,8.06
2023-04-03T01:25:02.486Z,8.07
2023-04-03T01:26:02.472Z,8.10
2023-04-03T01:27:02.454Z,8.00
2023-04-03T01:28:02.438Z,7.95
2023-04-03T01:29:02.421Z,8.00
2023-04-03T01:30:02.407Z,7.89
2023-04-03T01:31:02.463Z,7.73
2023-04-03T01:32:02.395Z,7.77
2023-04-03T01:33:02.560Z,7.82
2023-04-03T01:34:02.352Z,7.79
2023-04-03T01:35:02.329Z,7.71
2023-04-03T01:36:02.341Z,7.70
2023-04-03T01:37:02.295Z,7.62
2023-04-03T01:38:02.285Z,7.57
2023-04-03T01:39:02.266Z,7.44
2023-04-03T01:40:02.264Z,7.44
2023-04-03T01:41:02.240Z,7.48
2023-04-03T01:42:02.219Z,7.48
2023-04-03T01:43:02.214Z,7.39
2023-04-03T01:44:02.186Z,7.34
2023-04-03T01:45:02.169Z,7.32
2023-04-03T01:46:02.183Z,7.26
2023-04-03T01:47:02.139Z,7.24
2023-04-03T01:48:02.205Z,7.19
2023-04-03T01:49:02.312Z,7.15
2023-04-03T01:50:02.094Z,7.09
2023-04-03T01:51:02.079Z,7.11
2023-04-03T01:52:02.063Z,7.16
2023-04-03T01:53:02.067Z,7.12
2023-04-03T01:54:02.033Z,7.05
2023-04-03T01:55:02.016Z,7.01
2023-04-03T01:56:02.001Z,7.01
2023-04-03T01:57:01.989Z,7.08
2023-04-03T01:58:01.974Z,7.11
2023-04-03T02:00:01.930Z,7.15
2023-04-03T02:02:01.910Z,7.12
2023-04-03T02:03:01.928Z,7.21
2023-04-03T02:04:01.946Z,7.19
2023-04-03T02:05:01.865Z,7.23
2023-04-03T02:06:01.837Z,7.19
2023-04-03T02:07:01.821Z,7.19
2023-04-03T02:08:02.007Z,7.16
2023-04-03T02:10:01.769Z,7.12
2023-04-03T02:11:01.757Z,7.11
2023-04-03T02:12:01.737Z,7.00
2023-04-03T02:14:01.726Z,7.00
2023-04-03T02:15:01.694Z,7.00
2023-04-03T02:16:01.754Z,7.00
2023-04-03T02:17:01.754Z,6.91
2023-04-03T02:18:01.690Z,6.89
2023-04-03T02:19:01.824Z,6.90
2023-04-03T02:20:01.636Z,6.93
2023-04-03T02:23:01.558Z,6.64
2023-04-03T02:25:01.531Z,6.68
2023-04-03T02:26:01.512Z,6.78
2023-04-03T02:27:01.495Z,6.76
2023-04-03T02:28:01.476Z,6.64
2023-04-03T02:29:01.483Z,6.65
2023-04-03T02:30:01.492Z,6.58
2023-04-03T02:31:01.468Z,6.63
2023-04-03T02:32:01.417Z,6.58
2023-04-03T02:33:01.479Z,6.65
2023-04-03T02:34:01.377Z,6.60
2023-04-03T02:35:01.373Z,6.50
2023-04-03T02:36:01.393Z,6.58
2023-04-03T02:37:01.330Z,6.61
2023-04-03T02:38:01.309Z,6.64
2023-04-03T02:39:01.297Z,6.68
2023-04-03T02:41:01.262Z,6.68
2023-04-03T02:42:01.254Z,6.65
2023-04-03T02:43:01.233Z,6.68
2023-04-03T02:44:01.217Z,6.65
2023-04-03T02:45:01.204Z,6.63
2023-04-03T02:46:01.205Z,6.68
2023-04-03T02:47:01.166Z,6.72
2023-04-03T02:48:01.200Z,6.69
2023-04-03T02:49:01.135Z,6.76
2023-04-03T02:50:01.328Z,6.63
2023-04-03T02:51:01.103Z,6.61
2023-04-03T02:52:01.115Z,6.69
2023-04-03T02:53:01.089Z,6.61
2023-04-03T02:54:01.066Z,6.71
2023-04-03T02:55:01.040Z,6.72
2023-04-03T02:56:01.024Z,6.78
2023-04-03T02:57:01.045Z,6.65
2023-04-03T02:58:00.993Z,6.71
2023-04-03T02:59:00.972Z,6.75
2023-04-03T03:00:00.973Z,6.75
2023-04-03T03:01:00.990Z,6.71
2023-04-03T03:02:00.969Z,6.64
2023-04-03T03:03:00.943Z,6.61
2023-04-03T03:04:00.904Z,6.65
2023-04-03T03:05:00.901Z,6.57
2023-04-03T03:06:00.866Z,6.57
2023-04-03T03:07:00.851Z,6.50
2023-04-03T03:08:00.854Z,6.42
2023-04-03T03:09:00.812Z,6.43
2023-04-03T03:10:00.810Z,6.36
2023-04-03T03:11:00.778Z,6.50
2023-04-03T03:12:00.767Z,6.45
2023-04-03T03:13:00.746Z,6.36
2023-04-03T03:14:00.736Z,6.32
2023-04-03T03:15:00.917Z,6.33
2023-04-03T03:16:00.730Z,6.24
2023-04-03T03:17:00.698Z,6.28
2023-04-03T03:18:00.731Z,6.24
2023-04-03T03:19:00.653Z,6.27
2023-04-03T03:20:00.635Z,6.28
2023-04-03T03:21:00.822Z,6.28
2023-04-03T03:22:00.605Z,6.21
2023-04-03T03:23:00.583Z,6.19
2023-04-03T03:24:00.589Z,6.24
2023-04-03T03:25:00.762Z,6.20
2023-04-03T03:26:00.535Z,6.21
2023-04-03T03:27:00.516Z,6.21
2023-04-03T03:28:00.516Z,6.14
2023-04-03T03:29:00.489Z,6.17
2023-04-03T03:30:00.474Z,6.06
2023-04-03T03:31:00.470Z,6.14
2023-04-03T03:33:00.470Z,6.19
2023-04-03T03:34:00.402Z,6.20
2023-04-03T03:35:00.392Z,6.05
2023-04-03T03:36:00.440Z,6.06
2023-04-03T03:37:00.355Z,6.13
2023-04-03T03:38:00.336Z,6.03
2023-04-03T03:39:00.330Z,6.13
2023-04-03T03:40:00.328Z,6.17
2023-04-03T03:41:00.286Z,6.16
2023-04-03T03:42:00.265Z,6.19
2023-04-03T03:43:00.254Z,6.16
2023-04-03T03:44:00.239Z,6.21
2023-04-03T03:45:00.245Z,6.16
2023-04-03T03:46:00.203Z,6.13
2023-04-03T03:47:00.208Z,6.25
2023-04-03T03:48:00.266Z,6.21
2023-04-03T03:49:00.153Z,6.19
2023-04-03T03:50:00.160Z,6.20
2023-04-03T03:51:00.119Z,6.11
2023-04-03T03:52:00.128Z,6.08
2023-04-03T03:53:00.154Z,6.11
2023-04-03T03:54:00.112Z,6.06
2023-04-03T03:55:00.055Z,6.08
2023-04-03T03:56:00.063Z,6.11
2023-04-03T03:57:00.045Z,6.05
2023-04-03T03:58:00.004Z,6.13
2023-04-03T03:58:59.998Z,6.08
2023-04-03T04:00:00.014Z,6.11
2023-04-03T04:00:59.954Z,6.05
2023-04-03T04:02:59.977Z,6.11
2023-04-03T04:04:00.006Z,6.13
2023-04-03T04:04:59.889Z,6.11
2023-04-03T04:05:59.878Z,6.10
2023-04-03T04:06:59.854Z,6.11
2023-04-03T04:07:59.840Z,6.20
2023-04-03T04:08:59.824Z,6.20
2023-04-03T04:09:59.809Z,6.19
2023-04-03T04:10:59.788Z,6.27
2023-04-03T04:11:59.795Z,6.24
2023-04-03T04:12:59.762Z,6.17
2023-04-03T04:13:59.742Z,6.20
2023-04-03T04:14:59.721Z,6.20
2023-04-03T04:15:59.709Z,6.17
2023-04-03T04:16:59.715Z,6.10
2023-04-03T04:17:59.695Z,6.17
2023-04-03T04:18:59.658Z,6.21
2023-04-03T04:19:59.643Z,6.19
2023-04-03T04:20:59.626Z,6.16
2023-04-03T04:21:59.611Z,6.20
2023-04-03T04:22:59.592Z,6.27
2023-04-03T04:23:59.578Z,6.30
2023-04-03T04:24:59.558Z,6.25
2023-04-03T04:26:59.530Z,6.33
2023-04-03T04:27:59.538Z,6.36
2023-04-03T04:28:59.511Z,6.35
2023-04-03T04:29:59.620Z,6.38
2023-04-03T04:30:59.476Z,6.38
2023-04-03T04:31:59.439Z,6.30
2023-04-03T04:32:59.452Z,6.30
2023-04-03T04:33:59.407Z,6.30
2023-04-03T04:34:59.416Z,6.32
2023-04-03T04:35:59.453Z,6.38
2023-04-03T04:36:59.422Z,6.28
2023-04-03T04:37:59.343Z,6.24
2023-04-03T04:38:59.329Z,6.28
2023-04-03T04:39:59.308Z,6.28
2023-04-03T04:40:59.295Z,6.32
2023-04-03T04:41:59.274Z,6.25
2023-04-03T04:43:59.466Z,6.27
2023-04-03T04:44:59.224Z,6.17
2023-04-03T04:45:59.226Z,6.25
2023-04-03T04:46:59.192Z,6.13
2023-04-03T04:47:59.273Z,6.14
2023-04-03T04:48:59.165Z,6.17
2023-04-03T04:50:59.127Z,6.20
2023-04-03T04:51:59.110Z,6.17
2023-04-03T04:52:59.096Z,6.19
2023-04-03T04:53:59.076Z,6.17
2023-04-03T04:54:59.060Z,6.14
2023-04-03T04:55:59.049Z,6.03
2023-04-03T04:56:59.105Z,6.13
2023-04-03T04:57:59.010Z,6.08
2023-04-03T04:58:58.997Z,6.16
2023-04-03T04:59:58.997Z,6.11
2023-04-03T05:00:58.968Z,6.05
2023-04-03T05:02:58.948Z,6.10
2023-04-03T05:03:58.911Z,6.02
2023-04-03T05:04:58.943Z,5.96
2023-04-03T05:05:58.891Z,6.06
2023-04-03T05:06:58.861Z,5.99
2023-04-03T05:07:58.847Z,5.95
2023-04-03T05:08:58.843Z,5.99
2023-04-03T05:09:58.824Z,5.93
2023-04-03T05:10:58.795Z,5.98
2023-04-03T05:11:58.783Z,5.90
2023-04-03T05:12:58.763Z,6.01
2023-04-03T05:13:58.748Z,5.92
2023-04-03T05:14:58.734Z,5.96
2023-04-03T05:15:58.769Z,5.87
2023-04-03T05:16:58.706Z,5.96
2023-04-03T05:17:58.777Z,5.93
2023-04-03T05:18:58.667Z,6.01
2023-04-03T05:19:58.655Z,5.96
2023-04-03T05:20:58.638Z,5.87
2023-04-03T05:21:58.619Z,5.95
2023-04-03T05:22:58.596Z,5.90
2023-04-03T05:23:58.581Z,5.92
2023-04-03T05:24:58.564Z,5.90
2023-04-03T05:25:58.547Z,5.98
2023-04-03T05:26:58.539Z,6.01
2023-04-03T05:27:58.516Z,6.03
2023-04-03T05:28:58.497Z,6.10
2023-04-03T05:29:58.482Z,5.98
2023-04-03T05:30:58.666Z,5.92
2023-04-03T05:31:58.493Z,5.90
2023-04-03T05:32:58.469Z,5.98
2023-04-03T05:33:58.416Z,5.96
2023-04-03T05:35:00.100Z,6.02
2023-04-03T05:35:58.388Z,5.98
2023-04-03T05:36:58.362Z,6.05
2023-04-03T05:37:58.348Z,6.11
2023-04-03T05:38:58.327Z,6.08
2023-04-03T05:39:58.312Z,6.08
2023-04-03T05:40:58.296Z,6.06
2023-04-03T05:41:58.283Z,6.05
2023-04-03T05:42:58.260Z,5.96
2023-04-03T05:43:58.254Z,6.02
2023-04-03T05:44:58.224Z,5.93
2023-04-03T05:45:58.300Z,5.90
2023-04-03T05:46:58.197Z,5.93
2023-04-03T05:47:58.260Z,5.84
2023-04-03T05:48:58.174Z,5.95
2023-04-03T05:49:58.347Z,5.81
2023-04-03T05:50:58.163Z,5.84
2023-04-03T05:51:58.110Z,5.80
2023-04-03T05:52:58.106Z,5.75
2023-04-03T05:53:58.281Z,5.80
2023-04-03T05:54:58.269Z,5.73
2023-04-03T05:58:57.997Z,5.74
2023-04-03T06:00:58.373Z,5.75
2023-04-03T06:01:57.943Z,5.62
2023-04-03T06:02:58.064Z,5.69
2023-04-03T06:03:58.020Z,5.60
2023-04-03T06:05:57.876Z,5.65
2023-04-03T06:06:57.858Z,5.59
2023-04-03T06:07:58.040Z,5.66
2023-04-03T06:11:57.772Z,5.63
2023-04-03T06:12:57.761Z,5.67
2023-04-03T06:13:57.749Z,5.67
2023-04-03T06:15:57.712Z,5.67
2023-04-03T06:16:57.724Z,5.70
2023-04-03T06:17:57.743Z,5.63
2023-04-03T06:18:57.654Z,5.63
2023-04-03T06:19:57.671Z,5.63
2023-04-03T06:20:57.626Z,5.62
2023-04-03T06:21:57.605Z,5.56
2023-04-03T06:22:57.596Z,5.55
2023-04-03T06:23:57.594Z,5.48
2023-04-03T06:24:57.587Z,5.48
2023-04-03T06:25:57.568Z,5.47
2023-04-03T06:26:57.518Z,5.52
2023-04-03T06:27:57.504Z,5.55
2023-04-03T06:28:57.500Z,5.58
2023-04-03T06:29:57.475Z,5.56
2023-04-03T06:30:57.464Z,5.56
2023-04-03T06:31:57.439Z,5.62
2023-04-03T06:32:57.527Z,5.56
2023-04-03T06:33:57.410Z,5.55
2023-04-03T06:34:57.616Z,5.60
2023-04-03T06:35:57.387Z,5.56
2023-04-03T06:36:57.349Z,5.56
2023-04-03T06:37:57.339Z,5.60
2023-04-03T06:38:57.315Z,5.51
2023-04-03T06:39:57.305Z,5.65
2023-04-03T06:40:57.281Z,5.65
2023-04-03T06:41:57.280Z,5.74
2023-04-03T06:42:57.250Z,5.70
2023-04-03T06:43:57.237Z,5.63
2023-04-03T06:44:57.224Z,5.62
2023-04-03T06:45:57.229Z,5.62
2023-04-03T06:46:57.181Z,5.65
2023-04-03T06:47:57.366Z,5.70
2023-04-03T06:48:57.145Z,5.67
2023-04-03T06:49:57.133Z,5.73
2023-04-03T06:50:57.112Z,5.78
2023-04-03T06:51:57.130Z,5.77
2023-04-03T06:52:57.081Z,5.84
2023-04-03T06:53:57.077Z,5.80
2023-04-03T06:54:57.044Z,5.80
2023-04-03T06:55:57.031Z,5.83
2023-04-03T06:56:57.071Z,5.83
2023-04-03T06:57:56.999Z,6.02
2023-04-03T06:58:56.983Z,5.98
2023-04-03T06:59:56.968Z,6.11
2023-04-03T07:00:56.941Z,6.17
2023-04-03T07:01:56.956Z,6.21
2023-04-03T07:02:56.926Z,6.13
2023-04-03T07:03:56.895Z,6.11
2023-04-03T07:04:56.894Z,6.17
2023-04-03T07:05:56.864Z,6.13
2023-04-03T07:06:56.857Z,6.13
2023-04-03T07:07:56.855Z,6.03
2023-04-03T07:08:56.812Z,5.98
2023-04-03T07:10:56.788Z,6.01
2023-04-03T07:11:56.756Z,6.03
2023-04-03T07:12:56.753Z,6.05
2023-04-03T07:13:56.726Z,6.10
2023-04-03T07:15:56.775Z,6.13
2023-04-03T07:17:56.762Z,6.28
2023-04-03T07:18:56.646Z,6.28
2023-04-03T07:19:56.629Z,6.48
2023-04-03T07:20:56.632Z,6.50
2023-04-03T07:21:56.600Z,6.46
2023-04-03T07:22:56.588Z,6.51
2023-04-03T07:23:56.605Z,6.50
2023-04-03T07:24:56.558Z,6.50
2023-04-03T07:25:56.528Z,6.42
2023-04-03T07:26:56.517Z,6.42
2023-04-03T07:27:56.494Z,6.40
2023-04-03T07:28:56.493Z,6.45
2023-04-03T07:29:56.672Z,6.54
2023-04-03T07:30:56.449Z,6.58
2023-04-03T07:31:56.526Z,6.53
2023-04-03T07:32:56.480Z,6.57
2023-04-03T07:33:56.401Z,6.57
2023-04-03T07:34:56.404Z,6.64
2023-04-03T07:35:56.409Z,6.57
2023-04-03T07:36:56.380Z,6.63
2023-04-03T07:37:56.334Z,6.61
2023-04-03T07:38:56.320Z,6.55
2023-04-03T07:39:56.338Z,6.58
2023-04-03T07:40:56.288Z,6.68
2023-04-03T07:41:56.280Z,6.65
2023-04-03T07:42:56.261Z,6.64
2023-04-03T07:43:56.235Z,6.81
2023-04-03T07:44:56.225Z,6.73
2023-04-03T07:45:56.238Z,6.69
2023-04-03T07:47:56.186Z,6.76
2023-04-03T07:48:57.466Z,6.82
2023-04-03T07:49:56.149Z,6.83
2023-04-03T07:50:56.122Z,6.89
2023-04-03T07:51:56.108Z,6.91
2023-04-03T07:52:56.089Z,6.73
2023-04-03T07:53:56.078Z,6.72
2023-04-03T07:54:56.058Z,6.90
2023-04-03T07:55:56.128Z,6.86
2023-04-03T07:56:56.087Z,6.94
2023-04-03T07:57:56.012Z,6.90
2023-04-03T07:58:55.995Z,6.94
2023-04-03T07:59:55.986Z,6.86
2023-04-03T08:00:55.986Z,6.93
2023-04-03T08:01:55.950Z,6.86
2023-04-03T08:02:56.032Z,6.86
2023-04-03T08:03:56.041Z,6.97
2023-04-03T08:04:55.979Z,7.04
2023-04-03T08:05:55.903Z,6.96
2023-04-03T08:06:55.864Z,7.01
2023-04-03T08:07:55.854Z,7.12
2023-04-03T08:08:55.832Z,7.07
2023-04-03T08:09:55.819Z,6.99
2023-04-03T08:10:55.814Z,6.94
2023-04-03T08:11:55.813Z,7.00
2023-04-03T08:12:55.768Z,6.91
2023-04-03T08:13:55.755Z,6.90
2023-04-03T08:14:55.734Z,6.94
2023-04-03T08:15:55.728Z,6.93
2023-04-03T08:16:55.732Z,7.05
2023-04-03T08:17:55.736Z,7.07
2023-04-03T08:18:55.675Z,7.14
2023-04-03T08:19:55.658Z,7.12
2023-04-03T08:20:55.637Z,7.24
2023-04-03T08:21:55.736Z,7.21
2023-04-03T08:22:55.606Z,7.33
2023-04-03T08:23:55.592Z,7.39
2023-04-03T08:24:59.272Z,7.58
2023-04-03T08:25:55.575Z,7.66
2023-04-03T08:26:55.542Z,7.69
2023-04-03T08:27:55.560Z,7.71
2023-04-03T08:28:55.519Z,7.63
2023-04-03T08:29:55.498Z,7.67
2023-04-03T08:30:55.534Z,7.70
2023-04-03T08:31:55.467Z,7.63
2023-04-03T08:32:55.451Z,7.70
2023-04-03T08:33:55.450Z,7.77
2023-04-03T08:34:55.418Z,7.66
2023-04-03T08:35:55.452Z,7.69
2023-04-03T08:36:55.387Z,7.74
2023-04-03T08:37:55.376Z,7.82
2023-04-03T08:38:55.355Z,7.81
2023-04-03T08:39:55.343Z,7.77
2023-04-03T08:40:55.323Z,7.77
2023-04-03T08:41:55.312Z,7.77
2023-04-03T08:42:55.294Z,7.76
2023-04-03T08:43:55.409Z,7.88
2023-04-03T08:44:55.265Z,8.10
2023-04-03T08:45:55.257Z,8.10
2023-04-03T08:46:55.242Z,7.85
2023-04-03T08:47:56.421Z,7.91
2023-04-03T08:48:55.204Z,8.00
2023-04-03T08:49:55.189Z,7.96
2023-04-03T08:50:55.171Z,7.92
2023-04-03T08:51:55.164Z,7.86
2023-04-03T08:52:55.139Z,7.85
2023-04-03T08:53:55.137Z,7.79
2023-04-03T08:54:55.173Z,7.76
2023-04-03T08:55:55.108Z,7.73
2023-04-03T08:56:55.168Z,7.71
2023-04-03T08:57:55.070Z,7.63
2023-04-03T08:59:55.157Z,7.74
2023-04-03T09:00:55.028Z,7.77
2023-04-03T09:01:55.059Z,7.79
2023-04-03T09:02:55.013Z,7.70
2023-04-03T09:03:55.030Z,7.76
2023-04-03T09:04:54.974Z,7.69
2023-04-03T09:05:54.940Z,7.63
2023-04-03T09:06:54.927Z,7.71
2023-04-03T09:07:54.908Z,7.73
2023-04-03T09:08:54.896Z,7.63
2023-04-03T09:09:54.882Z,7.70
2023-04-03T09:10:54.862Z,7.71
2023-04-03T09:11:54.844Z,7.71
2023-04-03T09:12:54.831Z,7.69
2023-04-03T09:13:54.824Z,7.81
2023-04-03T09:14:54.805Z,7.73
2023-04-03T09:15:54.927Z,7.73
2023-04-03T09:16:54.770Z,7.66
2023-04-03T09:17:54.782Z,7.66
2023-04-03T09:18:54.739Z,7.70
2023-04-03T09:19:54.721Z,7.58
2023-04-03T09:20:54.710Z,7.67
2023-04-03T09:21:54.695Z,7.62
2023-04-03T09:22:54.677Z,7.54
2023-04-03T09:23:54.661Z,7.67
2023-04-03T09:24:54.644Z,7.70
2023-04-03T09:25:54.629Z,7.79
2023-04-03T09:26:54.644Z,7.77
2023-04-03T09:27:54.596Z,7.82
2023-04-03T09:28:54.584Z,7.84
2023-04-03T09:29:54.569Z,7.73
2023-04-03T09:30:54.550Z,7.77
2023-04-03T09:31:54.741Z,7.77
2023-04-03T09:32:54.556Z,7.88
2023-04-03T09:33:54.514Z,7.95
2023-04-03T09:34:54.490Z,7.92
2023-04-03T09:35:54.506Z,7.94
2023-04-03T09:36:54.480Z,7.85
2023-04-03T09:37:54.454Z,7.82
2023-04-03T09:38:54.429Z,7.70
2023-04-03T09:39:54.457Z,7.69
2023-04-03T09:40:54.396Z,7.70
2023-04-03T09:41:54.383Z,7.79
2023-04-03T09:43:00.752Z,7.86
2023-04-03T09:43:54.346Z,7.92
2023-04-03T09:44:54.337Z,8.06
2023-04-03T09:45:54.318Z,8.03
2023-04-03T09:46:54.362Z,8.18
2023-04-03T09:47:54.438Z,8.32
2023-04-03T09:49:05.066Z,8.31
2023-04-03T09:49:54.255Z,8.34
2023-04-03T09:50:54.246Z,8.39
2023-04-03T09:51:54.231Z,8.37
2023-04-03T09:52:54.213Z,8.32
2023-04-03T09:53:54.197Z,8.28
2023-04-03T09:54:54.184Z,8.32
2023-04-03T09:55:54.169Z,8.36
2023-04-03T09:56:54.228Z,8.42
2023-04-03T09:57:54.133Z,8.28
2023-04-03T09:58:54.121Z,8.21
2023-04-03T09:59:54.102Z,8.09
2023-04-03T10:00:54.130Z,8.24
2023-04-03T10:01:54.072Z,8.22
2023-04-03T10:02:54.128Z,8.21
2023-04-03T10:03:54.160Z,8.09
2023-04-03T10:05:08.421Z,8.06
2023-04-03T10:05:54.011Z,8.18
2023-04-03T10:06:53.999Z,8.20
2023-04-03T10:08:01.591Z,8.21
2023-04-03T10:08:53.968Z,8.17
2023-04-03T10:09:53.985Z,7.95
2023-04-03T10:10:53.940Z,7.99
2023-04-03T10:11:53.930Z,7.99
2023-04-03T10:12:53.908Z,7.94
2023-04-03T10:13:53.896Z,7.92
2023-04-03T10:14:53.880Z,7.96
2023-04-03T10:15:53.863Z,7.89
2023-04-03T10:16:53.889Z,7.99
2023-04-03T10:17:53.866Z,7.96
2023-04-03T10:18:53.819Z,8.00
2023-04-03T10:19:53.923Z,7.96
2023-04-03T10:20:53.780Z,7.96
2023-04-03T10:21:53.776Z,7.99
2023-04-03T10:22:53.749Z,7.96
2023-04-03T10:23:53.739Z,8.09
2023-04-03T10:24:53.723Z,8.09
2023-04-03T10:25:53.712Z,8.09
2023-04-03T10:26:53.697Z,8.06
2023-04-03T10:27:53.682Z,8.07
2023-04-03T10:28:53.655Z,8.06
2023-04-03T10:29:53.645Z,8.10
2023-04-03T10:30:53.665Z,8.24
2023-04-03T10:31:53.612Z,8.32
2023-04-03T10:32:53.618Z,8.39
2023-04-03T10:33:53.596Z,8.29
2023-04-03T10:35:04.622Z,8.34
2023-04-03T10:35:53.702Z,8.25
2023-04-03T10:36:53.530Z,8.27
2023-04-03T10:37:53.523Z,8.24
2023-04-03T10:38:53.501Z,8.31
2023-04-03T10:39:53.488Z,8.24
2023-04-03T10:40:53.470Z,8.17
2023-04-03T10:41:58.045Z,8.14
2023-04-03T10:42:53.444Z,8.10
2023-04-03T10:43:53.430Z,8.14
2023-04-03T10:44:53.420Z,8.07
2023-04-03T10:45:53.452Z,8.06
2023-04-03T10:46:53.389Z,8.04
2023-04-03T10:47:53.417Z,8.27
2023-04-03T10:48:53.350Z,8.25
2023-04-03T10:49:59.303Z,8.13
2023-04-03T10:50:53.318Z,8.07
2023-04-03T10:51:53.425Z,8.09
2023-04-03T10:52:53.302Z,7.99
2023-04-03T10:53:53.296Z,8.12
2023-04-03T10:54:53.259Z,8.07
2023-04-03T10:55:53.257Z,8.06
2023-04-03T10:57:04.566Z,8.09
2023-04-03T10:57:53.279Z,8.07
2023-04-03T10:58:53.197Z,8.04
2023-04-03T10:59:53.190Z,8.06
2023-04-03T11:00:53.169Z,8.13
2023-04-03T11:01:53.220Z,8.14
2023-04-03T11:02:53.185Z,7.99
2023-04-03T11:03:53.220Z,7.92
2023-04-03T11:04:53.112Z,7.92
2023-04-03T11:05:53.095Z,7.89
2023-04-03T11:06:53.077Z,7.88
2023-04-03T11:07:53.188Z,7.95
2023-04-03T11:08:53.045Z,7.99
2023-04-03T11:09:53.037Z,7.99
2023-04-03T11:10:53.017Z,8.00
2023-04-03T11:11:52.999Z,7.96
2023-04-03T11:12:53.008Z,8.02
2023-04-03T11:13:52.976Z,7.88
2023-04-03T11:14:52.953Z,7.94
2023-04-03T11:15:52.983Z,8.02
2023-04-03T11:16:54.427Z,7.96
2023-04-03T11:17:52.938Z,7.94
2023-04-03T11:18:52.901Z,7.91
2023-04-03T11:19:52.880Z,8.02
2023-04-03T11:20:52.861Z,7.94
2023-04-03T11:21:52.854Z,7.99
2023-04-03T11:22:52.827Z,7.94
2023-04-03T11:23:52.845Z,7.99
2023-04-03T11:24:52.799Z,7.94
2023-04-03T11:25:52.785Z,7.95
2023-04-03T11:26:52.768Z,7.95
2023-04-03T11:27:52.766Z,7.95
2023-04-03T11:28:52.737Z,8.18
2023-04-03T11:29:52.724Z,8.21
2023-04-03T11:30:53.980Z,8.00
2023-04-03T11:31:52.749Z,8.10
2023-04-03T11:32:52.716Z,8.09
2023-04-03T11:33:52.681Z,8.20
2023-04-03T11:34:52.647Z,8.17
2023-04-03T11:35:52.652Z,8.13
2023-04-03T11:36:52.813Z,8.24
2023-04-03T11:37:52.600Z,8.20
2023-04-03T11:38:54.059Z,8.22
2023-04-03T11:39:52.684Z,8.28
2023-04-03T11:40:52.549Z,8.10
2023-04-03T11:42:00.274Z,8.22
2023-04-03T11:42:52.526Z,8.27
2023-04-03T11:43:52.508Z,8.32
2023-04-03T11:44:52.488Z,8.29
2023-04-03T11:45:52.477Z,8.40
2023-04-03T11:46:53.696Z,8.34
2023-04-03T11:47:52.506Z,8.36
2023-04-03T11:48:52.427Z,8.36
2023-04-03T11:49:52.418Z,8.39
2023-04-03T11:50:52.396Z,8.45
2023-04-03T11:51:52.383Z,8.34
2023-04-03T11:52:52.367Z,8.37
2023-04-03T11:53:52.352Z,8.31
2023-04-03T11:54:52.339Z,8.37
2023-04-03T11:55:52.439Z,8.32
2023-04-03T11:56:52.352Z,8.28
2023-04-03T11:57:52.290Z,8.24
2023-04-03T11:58:52.270Z,8.27
2023-04-03T11:59:52.260Z,8.27
2023-04-03T12:00:52.397Z,8.31
2023-04-03T12:01:52.276Z,8.22
2023-04-03T12:02:54.760Z,8.21
2023-04-03T12:03:52.257Z,8.17
2023-04-03T12:04:52.177Z,8.14
2023-04-03T12:05:52.166Z,8.07
2023-04-03T12:06:52.149Z,7.99
2023-04-03T12:07:52.132Z,8.02
2023-04-03T12:08:52.115Z,7.94
2023-04-03T12:09:52.103Z,7.95
2023-04-03T12:10:53.617Z,8.00
2023-04-03T12:11:52.195Z,7.94
2023-04-03T12:12:52.054Z,8.07
2023-04-03T12:13:52.041Z,8.09
2023-04-03T12:14:52.022Z,8.10
2023-04-03T12:15:52.012Z,8.18
2023-04-03T12:16:52.010Z,8.10
2023-04-03T12:17:52.101Z,8.17
2023-04-03T12:18:51.961Z,8.14
2023-04-03T12:19:51.951Z,8.24
2023-04-03T12:20:51.928Z,8.13
2023-04-03T12:21:51.917Z,8.18
2023-04-03T12:22:51.903Z,8.21
2023-04-03T12:23:51.886Z,8.14
2023-04-03T12:24:51.867Z,8.14
2023-04-03T12:25:51.868Z,8.18
2023-04-03T12:26:51.874Z,8.12
2023-04-03T12:27:51.842Z,8.22
2023-04-03T12:28:51.811Z,8.24
2023-04-03T12:29:51.796Z,8.24
2023-04-03T12:30:51.835Z,8.22
2023-04-03T12:31:51.764Z,8.22
2023-04-03T12:32:56.269Z,8.25
2023-04-03T12:34:51.719Z,8.39
2023-04-03T12:35:51.782Z,8.52
2023-04-03T12:36:51.689Z,8.45
2023-04-03T12:37:51.680Z,8.63
2023-04-03T12:38:51.660Z,8.64
2023-04-03T12:39:51.641Z,8.63
2023-04-03T12:40:51.631Z,8.57
2023-04-03T12:41:51.616Z,8.50
2023-04-03T12:42:51.600Z,8.57
2023-04-03T12:43:51.700Z,8.54
2023-04-03T12:44:51.569Z,8.60
2023-04-03T12:45:51.614Z,8.50
2023-04-03T12:46:51.577Z,8.54
2023-04-03T12:47:51.554Z,8.52
2023-04-03T12:48:51.509Z,8.50
2023-04-03T12:49:52.803Z,8.39
2023-04-03T12:51:24.692Z,8.34
2023-04-03T12:51:51.462Z,8.36
2023-04-03T12:52:51.460Z,8.36
2023-04-03T12:53:51.433Z,8.34
2023-04-03T12:54:51.414Z,8.39
2023-04-03T12:55:51.400Z,8.29
2023-04-03T12:56:51.443Z,8.31
2023-04-03T12:57:51.386Z,8.32
2023-04-03T12:58:51.359Z,8.32
2023-04-03T12:59:51.459Z,8.47
2023-04-03T13:00:51.322Z,8.47
2023-04-03T13:01:51.358Z,8.43
2023-04-03T13:02:51.468Z,8.42
2023-04-03T13:03:51.297Z,8.42
2023-04-03T13:04:51.264Z,8.42
2023-04-03T13:05:51.250Z,8.49
2023-04-03T13:06:51.232Z,8.47
2023-04-03T13:07:51.221Z,8.47
2023-04-03T13:08:51.202Z,8.61
2023-04-03T13:09:51.195Z,8.55
2023-04-03T13:10:51.180Z,8.55
2023-04-03T13:11:51.189Z,8.52
2023-04-03T13:12:51.139Z,8.57
2023-04-03T13:13:51.129Z,8.61
2023-04-03T13:14:51.111Z,8.54
2023-04-03T13:15:51.252Z,8.60
2023-04-03T13:16:51.079Z,8.57
2023-04-03T13:17:51.176Z,8.54
2023-04-03T13:18:51.050Z,8.55
2023-04-03T13:19:51.043Z,8.52
2023-04-03T13:20:51.042Z,8.45
2023-04-03T13:21:51.045Z,8.42
2023-04-03T13:22:50.995Z,8.36
2023-04-03T13:23:55.153Z,8.45
2023-04-03T13:24:50.958Z,8.45
2023-04-03T13:25:50.946Z,8.49
2023-04-03T13:26:50.928Z,8.54
2023-04-03T13:27:52.265Z,8.52
2023-04-03T13:28:52.555Z,8.55
2023-04-03T13:29:50.885Z,8.54
2023-04-03T13:30:50.867Z,8.52
2023-04-03T13:31:51.096Z,8.52
2023-04-03T13:32:50.906Z,8.57
2023-04-03T13:33:50.823Z,8.52
2023-04-03T13:34:50.809Z,8.49
2023-04-03T13:35:50.829Z,8.54
2023-04-03T13:36:50.780Z,8.52
2023-04-03T13:37:50.761Z,8.50
2023-04-03T13:38:50.746Z,8.43
2023-04-03T13:39:50.730Z,8.45
2023-04-03T13:40:50.901Z,8.47
2023-04-03T13:41:50.699Z,8.43
2023-04-03T13:42:50.906Z,8.43
2023-04-03T13:43:53.507Z,8.45
2023-04-03T13:44:50.665Z,8.39
2023-04-03T13:45:50.675Z,8.37
2023-04-03T13:46:50.621Z,8.34